Time;durP1;ratioP1;P1;durP2;ratioP2;P2;SDS_P1;SDS_P2;PMS_P1;PMS_P2;Temp;Humidity;BMP_temperature;BMP_pressure;BME280_temperature;BME280_humidity;BME280_pressure;Samples;Min_cycle;Max_cycle;Signal;HPM_P1;HPM_P2
2021/12/14 00:00:54;;;;;;;43.73;18.30;;;-0.30;99.90;;;;;;4971565;28;20236;-67
2021/12/14 00:03:24;;;;;;;42.83;17.70;;;-0.40;99.90;;;;;;4971717;28;20730;-68
2021/12/14 00:05:53;;;;;;;41.50;18.47;;;-0.40;99.90;;;;;;4971019;28;20296;-68
2021/12/14 00:08:20;;;;;;;38.63;16.73;;;-0.50;99.90;;;;;;4968866;28;20291;-67
2021/12/14 00:11:10;;;;;;;36.33;17.47;;;-0.50;99.90;;;;;;4971502;28;20299;-68
2021/12/14 00:13:51;;;;;;;33.93;16.23;;;-0.50;99.90;;;;;;4971850;28;20212;-69
2021/12/14 00:16:18;;;;;;;36.53;15.70;;;-0.50;99.90;;;;;;4970112;28;20204;-67
2021/12/14 00:18:45;;;;;;;39.57;15.97;;;-0.50;99.90;;;;;;4969687;28;20259;-67
2021/12/14 00:21:20;;;;;;;40.13;17.20;;;-0.60;99.90;;;;;;4971312;28;20312;-68
2021/12/14 00:24:09;;;;;;;34.47;15.87;;;-0.50;99.90;;;;;;4963343;28;20682;-68
2021/12/14 00:26:40;;;;;;;33.27;15.83;;;-0.60;99.90;;;;;;4967625;28;20846;-67
2021/12/14 00:29:09;;;;;;;32.43;15.13;;;-0.60;99.90;;;;;;4966372;28;20291;-68
2021/12/14 00:31:37;;;;;;;36.13;16.27;;;-0.60;99.90;;;;;;4970958;28;20636;-67
2021/12/14 00:34:06;;;;;;;38.47;15.40;;;-0.60;99.90;;;;;;4971317;28;20217;-68
2021/12/14 00:36:36;;;;;;;37.13;16.87;;;-0.70;99.90;;;;;;4970047;28;20262;-68
2021/12/14 00:39:07;;;;;;;35.50;17.03;;;-0.70;99.90;;;;;;4970629;28;20208;-68
2021/12/14 00:41:36;;;;;;;38.83;18.20;;;-0.70;99.90;;;;;;4970257;28;20307;-67
2021/12/14 00:44:04;;;;;;;39.60;17.27;;;-0.70;99.90;;;;;;4967774;28;20287;-68
2021/12/14 00:46:33;;;;;;;37.80;17.40;;;-0.70;99.90;;;;;;4970713;28;20374;-67
2021/12/14 00:49:00;;;;;;;41.20;18.70;;;-0.60;99.90;;;;;;4971220;28;20235;-67
2021/12/14 00:51:28;;;;;;;40.67;17.90;;;-0.60;99.90;;;;;;4986705;28;20307;-67
2021/12/14 00:53:59;;;;;;;39.53;18.53;;;-0.70;99.90;;;;;;4973081;28;20701;-67
2021/12/14 00:56:26;;;;;;;42.83;18.93;;;-0.70;99.90;;;;;;4977099;28;20300;-67
2021/12/14 00:58:53;;;;;;;44.87;18.27;;;-0.70;99.90;;;;;;4990699;28;20235;-67
2021/12/14 01:01:24;;;;;;;41.10;17.30;;;-0.60;99.90;;;;;;4965493;28;20260;-68
2021/12/14 01:03:54;;;;;;;39.87;18.10;;;-0.60;99.90;;;;;;4972451;28;20748;-68
2021/12/14 01:06:22;;;;;;;38.53;18.40;;;-0.60;99.90;;;;;;4971668;28;20315;-68
2021/12/14 01:08:50;;;;;;;39.93;18.50;;;-0.60;99.90;;;;;;4974845;28;20299;-67
2021/12/14 01:11:23;;;;;;;42.73;18.80;;;-0.60;99.90;;;;;;4984473;28;20630;-68
2021/12/14 01:14:04;;;;;;;39.23;17.97;;;-0.50;99.90;;;;;;4991008;28;20239;-67
2021/12/14 01:16:47;;;;;;;40.10;17.83;;;-0.50;99.90;;;;;;4976610;28;20791;-67
2021/12/14 01:19:19;;;;;;;33.60;15.80;;;-0.50;99.90;;;;;;4986601;28;20216;-67
2021/12/14 01:22:13;;;;;;;36.73;17.77;;;-0.50;99.90;;;;;;4971220;28;20595;-67
2021/12/14 01:27:33;;;;;;;36.97;17.93;;;-0.60;99.90;;;;;;4957141;28;20212;-67
2021/12/14 01:30:05;;;;;;;37.27;17.90;;;-0.60;99.90;;;;;;4979242;28;20280;-67
2021/12/14 01:32:36;;;;;;;36.57;16.33;;;-0.60;99.90;;;;;;4964464;28;20216;-67
2021/12/14 01:35:10;;;;;;;42.27;18.17;;;-0.60;99.90;;;;;;4977388;28;20212;-67
2021/12/14 01:37:43;;;;;;;38.47;17.23;;;-0.60;99.90;;;;;;4958458;28;20622;-67
2021/12/14 01:40:18;;;;;;;41.17;17.03;;;-0.60;99.90;;;;;;4976960;28;20220;-68
2021/12/14 01:42:47;;;;;;;39.33;16.93;;;-0.70;99.90;;;;;;4978259;28;20209;-67
2021/12/14 01:45:19;;;;;;;45.13;17.67;;;-0.70;99.90;;;;;;4980045;28;20216;-68
2021/12/14 01:47:49;;;;;;;37.00;17.30;;;-0.70;99.90;;;;;;4992273;28;20203;-67
2021/12/14 01:50:21;;;;;;;36.83;16.47;;;-0.70;99.90;;;;;;4982785;28;20576;-66
2021/12/14 01:52:49;;;;;;;38.63;17.83;;;-0.70;99.90;;;;;;4979924;28;20296;-67
2021/12/14 01:55:20;;;;;;;38.43;17.40;;;-0.80;99.90;;;;;;4981086;28;20304;-67
2021/12/14 01:57:49;;;;;;;37.07;16.17;;;-0.80;99.90;;;;;;4981982;28;20324;-67
2021/12/14 02:00:20;;;;;;;37.00;17.53;;;-0.80;99.90;;;;;;4978838;28;20319;-67
2021/12/14 02:02:48;;;;;;;39.77;18.27;;;-0.90;99.90;;;;;;4987892;28;20203;-66
2021/12/14 02:05:26;;;;;;;42.27;17.03;;;-0.90;99.90;;;;;;4977086;28;20307;-68
2021/12/14 02:07:54;;;;;;;41.67;18.90;;;-1.00;99.90;;;;;;4981691;28;20226;-67
2021/12/14 02:10:26;;;;;;;44.03;20.87;;;-1.00;99.90;;;;;;4986334;28;20291;-67
2021/12/14 02:12:55;;;;;;;48.50;20.03;;;-1.10;99.90;;;;;;4982040;28;20608;-67
2021/12/14 02:15:28;;;;;;;46.20;19.97;;;-1.10;99.90;;;;;;4989032;28;20205;-67
2021/12/14 02:17:57;;;;;;;46.33;20.60;;;-1.20;99.90;;;;;;4985985;28;20298;-67
2021/12/14 02:20:27;;;;;;;53.03;20.97;;;-1.20;99.90;;;;;;4993953;28;20396;-69
2021/12/14 02:22:56;;;;;;;47.30;20.07;;;-1.20;99.90;;;;;;4981224;28;20290;-68
2021/12/14 02:25:24;;;;;;;50.50;20.23;;;-1.20;99.90;;;;;;4987587;28;20300;-67
2021/12/14 02:27:53;;;;;;;46.87;19.27;;;-1.20;99.90;;;;;;4977710;28;20232;-68
2021/12/14 02:30:26;;;;;;;48.37;21.13;;;-1.20;99.90;;;;;;4976158;28;20247;-68
2021/12/14 02:32:54;;;;;;;43.40;19.73;;;-1.10;99.90;;;;;;4974256;28;20610;-68
2021/12/14 02:35:26;;;;;;;39.03;19.00;;;-1.20;99.90;;;;;;4967254;28;20296;-68
2021/12/14 02:37:58;;;;;;;40.00;18.33;;;-1.10;99.90;;;;;;4973857;28;20295;-67
2021/12/14 02:40:53;;;;;;;43.50;19.33;;;-1.10;99.90;;;;;;4975235;28;20272;-67
2021/12/14 02:43:20;;;;;;;45.23;19.90;;;-1.10;99.90;;;;;;4965407;28;20211;-68
2021/12/14 02:45:47;;;;;;;39.87;18.30;;;-1.00;99.90;;;;;;4977356;28;20283;-68
2021/12/14 02:48:14;;;;;;;38.70;18.60;;;-1.10;99.90;;;;;;4981649;28;20299;-68
2021/12/14 02:50:44;;;;;;;40.97;19.00;;;-1.10;99.90;;;;;;4985536;28;20208;-68
2021/12/14 02:53:14;;;;;;;40.20;19.37;;;-1.10;99.90;;;;;;4993244;28;20212;-67
2021/12/14 02:55:41;;;;;;;40.23;17.63;;;-1.10;99.90;;;;;;4984637;28;20307;-68
2021/12/14 02:58:09;;;;;;;41.30;18.00;;;-1.10;99.90;;;;;;4980760;28;20256;-68
2021/12/14 03:00:40;;;;;;;41.83;17.07;;;-1.10;99.90;;;;;;4982078;28;20294;-67
2021/12/14 03:03:09;;;;;;;35.00;16.93;;;-1.20;99.90;;;;;;4988852;28;20212;-68
2021/12/14 03:05:40;;;;;;;32.17;16.13;;;-1.30;99.90;;;;;;4962512;28;20271;-68
2021/12/14 03:08:13;;;;;;;36.00;17.30;;;-1.30;99.90;;;;;;4987765;28;20227;-68
2021/12/14 03:10:55;;;;;;;36.33;17.00;;;-1.30;99.90;;;;;;4973714;28;20293;-67
2021/12/14 03:13:24;;;;;;;29.83;14.57;;;-1.40;99.90;;;;;;4976200;28;20239;-68
2021/12/14 03:15:54;;;;;;;36.03;17.67;;;-1.40;99.90;;;;;;4991054;28;20655;-67
2021/12/14 03:18:24;;;;;;;32.00;15.57;;;-1.40;99.90;;;;;;4992826;28;20226;-68
2021/12/14 03:20:55;;;;;;;33.20;14.97;;;-1.50;99.90;;;;;;4985077;28;20339;-68
2021/12/14 03:23:26;;;;;;;34.03;16.30;;;-1.50;99.90;;;;;;4972679;28;20208;-68
2021/12/14 03:25:57;;;;;;;37.40;16.73;;;-1.60;99.90;;;;;;4973517;28;20240;-68
2021/12/14 03:28:27;;;;;;;39.40;16.73;;;-1.60;99.90;;;;;;4978316;28;20295;-68
2021/12/14 03:31:02;;;;;;;38.13;18.27;;;-1.70;99.90;;;;;;4993198;28;20208;-68
2021/12/14 03:33:35;;;;;;;36.10;16.57;;;-1.70;99.90;;;;;;4983904;28;20208;-68
2021/12/14 03:36:07;;;;;;;35.20;16.93;;;-1.70;99.90;;;;;;4973779;28;20213;-68
2021/12/14 03:38:38;;;;;;;34.60;15.57;;;-1.70;99.90;;;;;;4959806;28;20317;-67
2021/12/14 03:41:10;;;;;;;36.77;16.13;;;-1.60;99.90;;;;;;4963290;28;20241;-67
2021/12/14 03:43:39;;;;;;;33.20;16.47;;;-1.70;99.90;;;;;;4975116;28;20669;-67
2021/12/14 03:46:08;;;;;;;37.47;16.87;;;-1.70;99.90;;;;;;4973398;28;20295;-67
2021/12/14 03:48:36;;;;;;;31.60;15.37;;;-1.70;99.90;;;;;;4985768;28;20220;-67
2021/12/14 03:51:05;;;;;;;32.83;16.30;;;-1.70;99.90;;;;;;4978036;28;20205;-67
2021/12/14 03:53:32;;;;;;;34.87;16.00;;;-1.80;99.90;;;;;;4982016;28;20287;-68
2021/12/14 03:56:02;;;;;;;36.77;16.63;;;-1.80;99.90;;;;;;4982183;28;20294;-68
2021/12/14 03:58:35;;;;;;;33.17;15.97;;;-1.80;99.90;;;;;;4972571;28;20311;-68
2021/12/14 04:01:07;;;;;;;36.57;15.40;;;-1.80;99.90;;;;;;4986567;28;20243;-67
2021/12/14 04:03:35;;;;;;;34.23;15.87;;;-1.90;99.90;;;;;;4992841;28;20291;-68
2021/12/14 04:06:04;;;;;;;33.27;16.37;;;-1.90;99.90;;;;;;4980609;28;20296;-68
2021/12/14 04:08:31;;;;;;;33.10;16.83;;;-1.90;99.90;;;;;;4990299;28;20686;-68
2021/12/14 04:11:00;;;;;;;31.43;16.20;;;-1.90;99.90;;;;;;4992061;28;20310;-68
2021/12/14 04:13:33;;;;;;;33.47;16.00;;;-1.90;99.90;;;;;;4989510;28;20283;-68
2021/12/14 04:16:00;;;;;;;35.30;15.57;;;-1.90;99.90;;;;;;4972530;28;20279;-68
2021/12/14 04:18:28;;;;;;;32.13;14.87;;;-1.90;99.90;;;;;;4987709;28;20241;-68
2021/12/14 04:20:56;;;;;;;31.63;14.30;;;-1.90;99.90;;;;;;4992445;28;20670;-69
2021/12/14 04:23:28;;;;;;;31.33;14.57;;;-1.90;99.90;;;;;;4992664;28;20306;-67
2021/12/14 04:25:59;;;;;;;29.73;14.40;;;-2.00;99.90;;;;;;4989563;28;20231;-67
2021/12/14 04:28:30;;;;;;;28.47;13.43;;;-1.90;99.90;;;;;;4991775;28;20290;-67
2021/12/14 04:30:59;;;;;;;31.33;15.27;;;-1.90;99.90;;;;;;4983610;28;20319;-68
2021/12/14 04:33:30;;;;;;;28.50;13.83;;;-1.90;99.90;;;;;;4986092;28;20242;-67
2021/12/14 04:35:58;;;;;;;29.53;14.03;;;-1.90;99.90;;;;;;4974379;28;20246;-68
2021/12/14 04:38:29;;;;;;;29.40;13.87;;;-1.80;99.90;;;;;;4988827;28;20247;-67
2021/12/14 04:52:09;;;;;;;26.57;13.40;;;-1.70;99.90;;;;;;4991748;28;20512;-68
2021/12/14 04:54:40;;;;;;;24.13;13.33;;;-1.70;99.90;;;;;;4991459;28;20251;-68
2021/12/14 04:57:20;;;;;;;31.47;14.20;;;-1.70;99.90;;;;;;4978816;28;20307;-68
2021/12/14 04:59:49;;;;;;;31.50;15.63;;;-1.80;99.90;;;;;;4981544;28;20323;-69
2021/12/14 05:02:21;;;;;;;26.87;13.20;;;-1.80;99.90;;;;;;4983543;28;20648;-67
2021/12/14 05:04:48;;;;;;;35.13;15.13;;;-1.80;99.90;;;;;;4991073;28;20266;-68
2021/12/14 05:09:56;;;;;;;27.53;13.63;;;-1.70;99.90;;;;;;4977554;28;20575;-68
2021/12/14 05:12:28;;;;;;;28.53;14.17;;;-1.80;99.90;;;;;;4977231;28;20299;-67
2021/12/14 05:14:56;;;;;;;25.37;12.47;;;-1.70;99.90;;;;;;4986095;28;20227;-67
2021/12/14 05:17:28;;;;;;;30.10;14.20;;;-1.80;99.90;;;;;;4971359;28;20239;-67
2021/12/14 05:19:56;;;;;;;30.60;14.07;;;-1.80;99.90;;;;;;4976248;28;20295;-69
2021/12/14 05:22:26;;;;;;;26.20;13.93;;;-1.80;99.90;;;;;;4982382;28;20316;-68
2021/12/14 05:24:57;;;;;;;27.23;13.57;;;-1.70;99.90;;;;;;4987552;28;20196;-68
2021/12/14 05:27:28;;;;;;;28.73;13.90;;;-1.70;99.90;;;;;;4968752;28;20215;-68
2021/12/14 05:30:04;;;;;;;26.73;13.00;;;-1.70;99.90;;;;;;4981890;28;20259;-68
2021/12/14 05:32:32;;;;;;;27.20;14.10;;;-1.70;99.90;;;;;;4981861;28;20382;-67
2021/12/14 05:34:59;;;;;;;24.60;12.83;;;-1.70;99.90;;;;;;4982104;28;20276;-68
2021/12/14 05:37:30;;;;;;;27.63;13.67;;;-1.80;99.90;;;;;;4993304;28;20214;-68
2021/12/14 05:40:01;;;;;;;27.47;14.23;;;-1.80;99.90;;;;;;4991611;28;20257;-68
2021/12/14 05:45:16;;;;;;;28.10;14.43;;;-1.80;99.90;;;;;;4981066;28;20212;-68
2021/12/14 05:47:47;;;;;;;27.07;14.27;;;-1.80;99.90;;;;;;4991606;28;20270;-67
2021/12/14 05:50:17;;;;;;;29.07;14.90;;;-1.70;99.90;;;;;;4983551;28;20617;-67
2021/12/14 05:52:44;;;;;;;26.83;13.13;;;-1.70;99.90;;;;;;4981263;28;20304;-68
2021/12/14 05:55:13;;;;;;;29.83;15.17;;;-1.70;99.90;;;;;;4995261;28;20235;-68
2021/12/14 05:57:40;;;;;;;31.63;15.60;;;-1.60;99.90;;;;;;4985778;28;20319;-69
2021/12/14 06:00:10;;;;;;;30.50;14.33;;;-1.50;99.90;;;;;;4983307;28;20267;-68
2021/12/14 06:02:38;;;;;;;29.30;14.67;;;-1.50;99.90;;;;;;4987231;28;20231;-69
2021/12/14 06:05:13;;;;;;;36.83;16.23;;;-1.50;99.90;;;;;;4994681;28;20199;-68
2021/12/14 06:07:42;;;;;;;30.10;14.87;;;-1.50;99.90;;;;;;4983497;28;20247;-68
2021/12/14 06:10:10;;;;;;;33.17;15.83;;;-1.50;99.90;;;;;;4977757;28;20291;-68
2021/12/14 06:12:38;;;;;;;36.17;16.50;;;-1.50;99.90;;;;;;4985725;28;20293;-68
2021/12/14 06:15:10;;;;;;;31.53;14.57;;;-1.50;99.90;;;;;;4991923;28;20521;-68
2021/12/14 06:17:41;;;;;;;30.30;15.33;;;-1.50;99.90;;;;;;4975163;28;20589;-67
2021/12/14 06:20:12;;;;;;;29.13;14.07;;;-1.50;99.90;;;;;;4975459;28;20669;-66
2021/12/14 06:22:42;;;;;;;29.53;14.33;;;-1.40;99.90;;;;;;4975519;28;20312;-67
2021/12/14 06:25:11;;;;;;;28.63;14.87;;;-1.30;99.90;;;;;;4975028;28;20287;-67
2021/12/14 06:27:38;;;;;;;29.83;14.77;;;-1.50;99.90;;;;;;4962898;28;20240;-68
2021/12/14 06:30:08;;;;;;;31.23;16.20;;;-1.50;99.90;;;;;;4974663;28;20243;-68
2021/12/14 06:32:39;;;;;;;29.03;14.63;;;-1.50;99.90;;;;;;4974334;28;20264;-68
2021/12/14 06:35:11;;;;;;;33.43;16.90;;;-1.50;99.90;;;;;;4974992;28;20220;-68
2021/12/14 06:38:21;;;;;;;27.67;15.37;;;-1.50;99.90;;;;;;4974598;28;20212;-68
2021/12/14 06:40:52;;;;;;;33.33;15.17;;;-1.40;99.90;;;;;;4972852;28;20201;-68
2021/12/14 06:43:21;;;;;;;32.73;15.03;;;-1.40;99.90;;;;;;4974033;28;20209;-68
2021/12/14 06:45:55;;;;;;;32.53;15.50;;;-1.40;99.90;;;;;;4973458;28;20295;-67
2021/12/14 06:48:25;;;;;;;32.33;16.30;;;-1.40;99.90;;;;;;4973573;28;20205;-67
2021/12/14 06:50:58;;;;;;;31.87;15.50;;;-1.40;99.90;;;;;;4978181;28;20240;-68
2021/12/14 06:53:25;;;;;;;31.43;15.83;;;-1.40;99.90;;;;;;4966668;28;20579;-68
2021/12/14 06:55:54;;;;;;;27.07;15.13;;;-1.40;99.90;;;;;;4992983;28;20290;-68
2021/12/14 06:58:23;;;;;;;27.53;15.00;;;-1.30;99.90;;;;;;4988410;28;20271;-67
2021/12/14 07:00:53;;;;;;;32.80;15.63;;;-1.30;99.90;;;;;;4973650;28;20675;-67
2021/12/14 07:03:21;;;;;;;31.27;14.93;;;-1.30;99.90;;;;;;4974593;28;20756;-68
2021/12/14 07:05:51;;;;;;;26.77;14.57;;;-1.30;99.90;;;;;;4983540;28;20302;-69
2021/12/14 07:08:26;;;;;;;27.70;14.60;;;-1.30;99.90;;;;;;4977055;28;20208;-68
2021/12/14 07:10:55;;;;;;;25.07;14.07;;;-1.30;99.90;;;;;;4983398;28;20299;-67
2021/12/14 07:13:24;;;;;;;28.40;15.30;;;-1.20;99.90;;;;;;4976058;28;20232;-68
2021/12/14 07:15:52;;;;;;;33.97;16.10;;;-1.20;99.90;;;;;;4975440;28;20216;-70
2021/12/14 07:18:25;;;;;;;35.43;16.00;;;-1.10;99.90;;;;;;4974317;28;20236;-68
2021/12/14 07:20:53;;;;;;;29.93;15.43;;;-1.20;99.90;;;;;;4969953;28;20217;-69
2021/12/14 07:23:26;;;;;;;32.87;16.77;;;-1.20;99.90;;;;;;4969897;28;20340;-68
2021/12/14 07:25:56;;;;;;;34.13;15.57;;;-1.20;99.90;;;;;;4969672;28;20216;-70
2021/12/14 07:28:24;;;;;;;33.13;15.83;;;-1.20;99.90;;;;;;4971934;28;20220;-68
2021/12/14 07:30:53;;;;;;;33.43;17.07;;;-1.20;99.90;;;;;;4969906;28;20677;-69
2021/12/14 07:33:22;;;;;;;34.40;16.37;;;-1.20;99.90;;;;;;4959498;28;20685;-69
2021/12/14 07:35:53;;;;;;;28.57;15.70;;;-1.10;99.90;;;;;;4966363;28;20223;-69
2021/12/14 07:38:32;;;;;;;29.57;15.10;;;-1.10;99.90;;;;;;4966981;28;20240;-69
2021/12/14 07:41:14;;;;;;;31.23;16.83;;;-1.00;99.90;;;;;;4972513;28;20192;-69
2021/12/14 07:43:47;;;;;;;37.20;17.63;;;-0.90;99.90;;;;;;4967032;28;20692;-70
2021/12/14 07:46:19;;;;;;;32.47;15.37;;;-0.80;99.90;;;;;;4975511;28;20247;-70
2021/12/14 07:48:48;;;;;;;34.03;16.73;;;-0.70;99.90;;;;;;4971714;28;20654;-71
2021/12/14 07:51:17;;;;;;;32.97;16.20;;;-0.60;99.90;;;;;;4982146;28;20212;-70
2021/12/14 07:53:47;;;;;;;39.53;20.70;;;-0.50;99.90;;;;;;4987302;28;20298;-70
2021/12/14 07:56:28;;;;;;;43.37;19.70;;;-0.50;99.90;;;;;;4994959;28;20252;-70
2021/12/14 07:58:58;;;;;;;38.23;17.63;;;-0.40;99.90;;;;;;4974820;28;20291;-69
2021/12/14 08:01:26;;;;;;;36.50;17.97;;;-0.40;99.90;;;;;;4973852;28;20213;-70
2021/12/14 08:04:06;;;;;;;36.40;16.37;;;-0.40;99.90;;;;;;4972533;28;20279;-69
2021/12/14 08:06:54;;;;;;;37.40;16.47;;;-0.40;99.90;;;;;;4974086;28;20272;-70
2021/12/14 08:09:44;;;;;;;38.30;16.90;;;-0.30;99.90;;;;;;4974523;28;20271;-70
2021/12/14 08:12:12;;;;;;;31.87;15.67;;;-0.20;99.90;;;;;;4967863;28;20523;-71
2021/12/14 08:14:39;;;;;;;36.50;17.10;;;-0.20;99.90;;;;;;4974801;28;20267;-68
2021/12/14 08:17:09;;;;;;;36.13;16.87;;;-0.10;99.90;;;;;;4973361;28;20279;-70
2021/12/14 08:19:40;;;;;;;31.77;16.33;;;0.00;99.90;;;;;;4974066;28;20382;-69
2021/12/14 08:22:11;;;;;;;33.10;17.07;;;0.10;99.90;;;;;;4974650;28;20248;-70
2021/12/14 08:24:47;;;;;;;38.27;16.90;;;0.10;99.90;;;;;;4976645;28;20239;-69
2021/12/14 08:27:19;;;;;;;39.50;16.30;;;0.10;99.90;;;;;;4973344;28;20200;-69
2021/12/14 08:29:50;;;;;;;38.17;17.47;;;0.10;99.90;;;;;;4973579;28;20292;-69
2021/12/14 08:32:21;;;;;;;36.83;17.90;;;0.10;99.90;;;;;;4974616;28;20303;-69
2021/12/14 08:34:50;;;;;;;35.47;16.97;;;0.10;99.90;;;;;;4974229;28;20209;-70
2021/12/14 08:37:20;;;;;;;34.20;17.20;;;0.10;99.90;;;;;;4975018;28;20268;-69
2021/12/14 08:39:50;;;;;;;38.47;17.77;;;0.10;99.90;;;;;;4974060;28;20754;-69
2021/12/14 08:42:22;;;;;;;32.10;17.53;;;0.10;99.90;;;;;;4974358;28;20364;-70
2021/12/14 08:44:55;;;;;;;36.60;17.23;;;0.00;99.90;;;;;;4973686;28;20204;-70
2021/12/14 08:47:28;;;;;;;37.03;17.50;;;0.00;99.90;;;;;;4971816;28;20204;-70
2021/12/14 08:49:56;;;;;;;38.03;16.60;;;0.10;99.90;;;;;;4974700;28;20706;-69
2021/12/14 08:52:24;;;;;;;36.90;17.50;;;0.10;99.90;;;;;;4972257;28;20244;-68
2021/12/14 08:54:53;;;;;;;33.10;16.93;;;0.10;99.90;;;;;;4976304;28;20204;-68
2021/12/14 08:57:24;;;;;;;29.63;15.43;;;0.10;99.90;;;;;;4985327;28;20286;-70
2021/12/14 08:59:54;;;;;;;38.40;17.83;;;0.10;99.90;;;;;;4979363;28;20263;-69
2021/12/14 09:02:23;;;;;;;35.90;17.53;;;0.10;99.90;;;;;;4983925;28;20232;-69
2021/12/14 09:04:54;;;;;;;36.40;17.50;;;0.20;99.90;;;;;;4975108;28;20208;-70
2021/12/14 09:07:24;;;;;;;35.43;17.07;;;0.20;99.90;;;;;;4966243;28;20241;-70
2021/12/14 09:09:53;;;;;;;39.30;17.13;;;0.20;99.90;;;;;;4954115;28;20296;-70
2021/12/14 09:12:24;;;;;;;36.37;17.53;;;0.20;99.90;;;;;;4960654;28;20540;-70
2021/12/14 09:14:52;;;;;;;36.83;17.87;;;0.30;99.90;;;;;;4962339;28;20701;-69
2021/12/14 09:17:22;;;;;;;35.93;17.27;;;0.30;99.90;;;;;;4974965;28;20291;-70
2021/12/14 09:19:53;;;;;;;34.60;17.00;;;0.30;99.90;;;;;;4965749;28;20658;-69
2021/12/14 09:22:24;;;;;;;35.60;17.57;;;0.30;99.90;;;;;;4971478;28;20232;-69
2021/12/14 09:24:54;;;;;;;36.37;17.33;;;0.40;99.90;;;;;;4972414;28;20710;-68
2021/12/14 09:27:25;;;;;;;34.73;17.63;;;0.40;99.90;;;;;;4971395;28;20215;-69
2021/12/14 09:29:53;;;;;;;36.50;17.30;;;0.40;99.90;;;;;;4967949;28;20271;-69
2021/12/14 09:32:27;;;;;;;39.63;18.40;;;0.40;99.90;;;;;;4973168;28;20213;-70
2021/12/14 09:34:54;;;;;;;39.40;17.87;;;0.40;99.90;;;;;;4974241;28;20671;-70
2021/12/14 09:37:23;;;;;;;36.10;16.70;;;0.40;99.90;;;;;;4969490;28;20244;-70
2021/12/14 09:40:08;;;;;;;39.40;18.53;;;0.50;99.90;;;;;;4965910;28;20288;-70
2021/12/14 09:42:37;;;;;;;33.47;15.97;;;0.50;99.90;;;;;;4972359;28;20217;-70
2021/12/14 09:45:09;;;;;;;35.67;17.40;;;0.60;99.90;;;;;;4969765;28;20208;-69
2021/12/14 09:47:36;;;;;;;34.03;16.57;;;0.60;99.90;;;;;;4971715;28;20616;-69
2021/12/14 09:50:09;;;;;;;34.97;16.17;;;0.70;99.90;;;;;;4977648;28;20643;-69
2021/12/14 09:52:41;;;;;;;37.10;16.20;;;0.70;99.90;;;;;;4978258;28;20260;-69
2021/12/14 09:55:13;;;;;;;36.20;16.63;;;0.70;99.90;;;;;;4971785;28;20200;-70
2021/12/14 09:57:45;;;;;;;34.00;17.17;;;0.70;99.90;;;;;;4966202;28;20288;-69
2021/12/14 10:00:17;;;;;;;32.77;16.83;;;0.70;99.90;;;;;;4964669;28;20240;-71
2021/12/14 10:02:45;;;;;;;34.50;16.63;;;0.70;99.90;;;;;;4962396;28;20271;-69
2021/12/14 10:05:18;;;;;;;40.43;17.57;;;0.80;99.90;;;;;;4971525;28;20209;-69
2021/12/14 10:07:46;;;;;;;40.93;18.27;;;0.70;99.90;;;;;;4976169;28;20295;-68
2021/12/14 10:10:18;;;;;;;37.50;18.63;;;0.70;99.90;;;;;;4974558;28;20270;-67
2021/12/14 10:12:53;;;;;;;37.20;18.77;;;0.70;99.90;;;;;;4974371;28;20196;-69
2021/12/14 10:15:27;;;;;;;38.30;17.87;;;0.70;99.90;;;;;;4974192;28;20268;-68
2021/12/14 10:17:57;;;;;;;37.37;17.50;;;0.80;99.90;;;;;;4976536;28;20263;-69
2021/12/14 10:20:28;;;;;;;33.33;16.97;;;0.80;99.90;;;;;;4976343;28;20287;-70
2021/12/14 10:22:55;;;;;;;40.00;17.47;;;0.80;99.90;;;;;;4975082;28;20267;-69
2021/12/14 10:25:26;;;;;;;39.03;17.50;;;0.80;99.90;;;;;;4976720;28;20247;-69
2021/12/14 10:27:54;;;;;;;43.07;18.13;;;0.90;99.90;;;;;;4975307;28;20299;-69
2021/12/14 10:30:25;;;;;;;39.20;18.77;;;0.90;99.90;;;;;;4976552;28;20209;-69
2021/12/14 10:32:52;;;;;;;38.23;18.03;;;0.90;99.90;;;;;;4976302;28;20239;-70
2021/12/14 10:35:25;;;;;;;37.83;17.17;;;1.00;99.90;;;;;;4974998;28;20220;-69
2021/12/14 10:37:58;;;;;;;38.10;18.50;;;1.00;99.90;;;;;;4974889;28;20316;-69
2021/12/14 10:43:17;;;;;;;32.77;16.27;;;1.00;99.90;;;;;;4978491;28;20230;-70
2021/12/14 10:45:50;;;;;;;37.80;18.30;;;1.00;99.90;;;;;;4975627;28;20216;-70
2021/12/14 10:48:19;;;;;;;36.67;18.00;;;1.00;99.90;;;;;;4962260;28;20209;-70
2021/12/14 10:50:47;;;;;;;40.97;17.70;;;1.00;99.90;;;;;;4973669;28;20296;-69
2021/12/14 10:53:15;;;;;;;37.87;17.87;;;1.00;99.90;;;;;;4984550;28;20235;-68
2021/12/14 10:55:47;;;;;;;40.23;18.47;;;1.00;99.90;;;;;;4989335;28;20291;-69
2021/12/14 10:58:17;;;;;;;34.57;16.97;;;1.00;99.90;;;;;;4977747;28;20204;-69
2021/12/14 11:00:52;;;;;;;37.37;18.00;;;0.90;99.90;;;;;;4972512;28;20299;-69
2021/12/14 11:03:22;;;;;;;34.20;17.07;;;0.90;99.90;;;;;;4974714;28;20208;-69
2021/12/14 11:05:53;;;;;;;41.23;19.17;;;1.00;99.90;;;;;;4974706;28;20236;-69
2021/12/14 11:08:41;;;;;;;40.63;18.67;;;1.00;99.90;;;;;;4973367;28;20209;-68
2021/12/14 11:11:14;;;;;;;46.23;20.17;;;1.00;99.90;;;;;;4973676;28;20228;-70
2021/12/14 11:13:45;;;;;;;42.27;19.03;;;1.00;99.90;;;;;;4973076;28;20226;-68
2021/12/14 11:16:19;;;;;;;34.30;17.80;;;1.00;99.90;;;;;;4974068;28;20292;-69
2021/12/14 11:18:49;;;;;;;39.90;18.97;;;1.00;99.90;;;;;;4971781;28;20211;-69
2021/12/14 11:21:20;;;;;;;37.53;17.33;;;1.00;99.90;;;;;;4972571;28;20236;-70
2021/12/14 11:23:52;;;;;;;40.80;19.77;;;1.10;99.90;;;;;;4968044;28;20212;-72
2021/12/14 11:26:23;;;;;;;38.23;19.87;;;1.10;99.90;;;;;;4975198;28;20569;-70
2021/12/14 11:28:53;;;;;;;44.93;20.30;;;1.10;99.90;;;;;;4971965;28;20641;-69
2021/12/14 11:31:24;;;;;;;45.60;20.40;;;1.10;99.90;;;;;;4971561;28;20209;-69
2021/12/14 11:33:54;;;;;;;40.10;20.43;;;1.10;99.90;;;;;;4973932;28;20197;-69
2021/12/14 11:36:26;;;;;;;41.87;20.20;;;1.10;99.90;;;;;;4967142;28;20200;-70
2021/12/14 11:39:01;;;;;;;44.97;22.37;;;1.10;99.90;;;;;;4971359;28;20262;-69
2021/12/14 11:41:42;;;;;;;41.20;20.30;;;1.00;99.90;;;;;;4973671;28;20276;-70
2021/12/14 11:44:17;;;;;;;40.87;19.37;;;1.00;99.90;;;;;;4973355;28;20216;-69
2021/12/14 11:47:02;;;;;;;45.80;20.30;;;1.00;99.90;;;;;;4972343;28;20303;-69
2021/12/14 11:49:45;;;;;;;45.57;21.27;;;1.00;99.90;;;;;;4975857;28;20239;-70
2021/12/14 11:52:13;;;;;;;43.33;20.80;;;1.00;99.90;;;;;;4981210;28;20240;-69
2021/12/14 11:54:44;;;;;;;48.90;22.03;;;1.00;99.90;;;;;;4972388;28;20243;-68
2021/12/14 11:57:13;;;;;;;48.10;22.87;;;1.00;99.90;;;;;;4971786;28;20232;-69
2021/12/14 11:59:40;;;;;;;49.63;21.63;;;0.90;99.90;;;;;;4972495;28;20721;-68
2021/12/14 12:02:08;;;;;;;46.10;21.90;;;1.00;99.90;;;;;;4972572;28;20299;-69
2021/12/14 12:04:42;;;;;;;47.63;23.63;;;1.00;99.90;;;;;;4970088;28;20740;-69
2021/12/14 12:09:59;;;;;;;45.97;21.27;;;1.10;99.90;;;;;;4970031;28;20795;-67
2021/12/14 12:12:30;;;;;;;41.50;20.67;;;1.10;99.90;;;;;;4969685;28;20208;-67
2021/12/14 12:15:01;;;;;;;45.07;21.30;;;1.10;99.90;;;;;;4969722;28;20228;-66
2021/12/14 12:17:34;;;;;;;46.23;21.40;;;1.20;99.90;;;;;;4970579;28;20209;-68
2021/12/14 12:20:13;;;;;;;41.20;22.10;;;1.20;99.90;;;;;;4968948;28;20611;-67
2021/12/14 12:22:43;;;;;;;46.33;21.90;;;1.20;99.90;;;;;;4961889;28;20200;-66
2021/12/14 12:25:12;;;;;;;44.77;21.77;;;1.20;99.90;;;;;;4965487;28;20220;-66
2021/12/14 12:27:45;;;;;;;46.10;21.60;;;1.20;99.90;;;;;;4970618;28;20247;-69
2021/12/14 12:30:37;;;;;;;44.17;21.63;;;1.20;99.90;;;;;;4969479;28;20240;-71
2021/12/14 12:33:18;;;;;;;49.73;22.50;;;1.20;99.90;;;;;;4971020;28;20305;-70
2021/12/14 12:35:49;;;;;;;51.70;23.23;;;1.20;99.90;;;;;;4970417;28;20214;-70
2021/12/14 12:38:24;;;;;;;50.10;24.07;;;1.20;99.90;;;;;;4969869;28;20311;-71
2021/12/14 12:40:55;;;;;;;48.10;23.13;;;1.20;99.90;;;;;;4969595;28;20912;-70
2021/12/14 12:43:29;;;;;;;50.47;23.40;;;1.30;99.90;;;;;;4971216;28;20681;-71
2021/12/14 12:46:10;;;;;;;48.07;23.33;;;1.30;99.90;;;;;;4974435;28;20299;-71
2021/12/14 12:48:43;;;;;;;52.73;24.20;;;1.30;99.90;;;;;;4974048;28;20287;-70
2021/12/14 12:51:11;;;;;;;51.77;24.23;;;1.40;99.90;;;;;;4966692;28;20296;-71
2021/12/14 12:53:39;;;;;;;52.07;23.40;;;1.40;99.90;;;;;;4971250;28;20256;-70
2021/12/14 12:56:08;;;;;;;49.47;24.53;;;1.40;99.90;;;;;;4973507;28;20232;-70
2021/12/14 12:58:40;;;;;;;51.03;23.50;;;1.40;99.90;;;;;;4973622;28;20654;-70
2021/12/14 13:01:07;;;;;;;49.20;25.23;;;1.40;99.90;;;;;;4974851;28;20603;-71
2021/12/14 13:03:37;;;;;;;52.07;23.73;;;1.40;99.90;;;;;;4974541;28;20291;-71
2021/12/14 13:06:09;;;;;;;50.90;24.57;;;1.40;99.90;;;;;;4974153;28;20247;-71
2021/12/14 13:08:38;;;;;;;57.07;25.43;;;1.40;99.90;;;;;;4974550;28;20228;-70
2021/12/14 13:11:09;;;;;;;50.73;25.10;;;1.40;99.90;;;;;;4973728;28;20236;-71
2021/12/14 13:13:41;;;;;;;58.07;26.00;;;1.40;99.90;;;;;;4973698;28;20287;-72
2021/12/14 13:16:14;;;;;;;53.87;26.17;;;1.40;99.90;;;;;;4967088;28;20526;-69